createdAt,value
2017-12-30T00:00:23.094Z,3.20
2017-12-30T00:02:57.654Z,3.30
2017-12-30T00:05:32.311Z,3.10
2017-12-30T00:08:06.547Z,3.10
2017-12-30T00:10:40.758Z,3.20
2017-12-30T00:13:14.744Z,3.20
2017-12-30T00:15:48.705Z,3.10
2017-12-30T00:18:22.864Z,3.10
2017-12-30T00:20:57.387Z,3.20
2017-12-30T00:23:31.318Z,3.00
2017-12-30T00:26:05.372Z,3.20
2017-12-30T00:28:39.695Z,3.10
2017-12-30T00:31:13.884Z,3.00
2017-12-30T00:33:47.835Z,3.10
2017-12-30T00:36:22.348Z,3.20
2017-12-30T00:38:56.359Z,3.10
2017-12-30T00:41:30.376Z,3.10
2017-12-30T00:44:04.332Z,3.10
2017-12-30T00:46:38.340Z,3.20
2017-12-30T00:49:13.063Z,3.00
2017-12-30T00:51:49.156Z,3.10
2017-12-30T00:54:23.315Z,3.10
2017-12-30T00:56:57.404Z,3.20
2017-12-30T00:59:31.428Z,3.20
2017-12-30T01:02:05.527Z,3.30
2017-12-30T01:04:39.842Z,3.30
2017-12-30T01:07:14.260Z,3.20
2017-12-30T01:09:48.392Z,3.30
2017-12-30T01:12:23.397Z,3.30
2017-12-30T01:14:58.157Z,3.20
2017-12-30T01:17:32.189Z,3.20
2017-12-30T01:20:05.912Z,3.20
2017-12-30T01:22:40.731Z,3.30
2017-12-30T01:25:14.659Z,3.20
2017-12-30T01:27:49.430Z,3.20
2017-12-30T01:30:23.737Z,3.20
2017-12-30T01:32:57.959Z,3.30
2017-12-30T01:35:32.103Z,3.30
2017-12-30T01:38:06.077Z,3.20
2017-12-30T01:40:41.353Z,3.30
2017-12-30T01:43:15.037Z,3.30
2017-12-30T01:45:49.512Z,3.30
2017-12-30T01:48:24.685Z,3.20
2017-12-30T01:50:58.806Z,3.30
2017-12-30T01:53:33.555Z,3.30
2017-12-30T01:56:07.665Z,3.20
2017-12-30T01:58:41.760Z,3.40
2017-12-30T02:01:17.681Z,3.20
2017-12-30T02:03:52.569Z,3.30
2017-12-30T02:06:26.631Z,3.30
2017-12-30T02:09:01.498Z,3.20
2017-12-30T02:11:36.126Z,3.20
2017-12-30T02:14:10.409Z,3.10
2017-12-30T02:16:44.675Z,3.20
2017-12-30T02:19:18.735Z,3.10
2017-12-30T02:21:52.524Z,3.20
2017-12-30T02:24:27.232Z,3.20
2017-12-30T02:27:01.167Z,3.20
2017-12-30T02:29:35.663Z,3.20
2017-12-30T02:32:11.861Z,3.20
2017-12-30T02:34:46.007Z,3.10
2017-12-30T02:37:21.821Z,3.10
2017-12-30T02:39:56.096Z,3.10
2017-12-30T02:42:31.730Z,3.00
2017-12-30T02:45:06.005Z,3.00
2017-12-30T02:47:41.554Z,3.00
2017-12-30T02:50:15.836Z,3.00
2017-12-30T02:52:49.837Z,3.00
2017-12-30T02:55:24.717Z,3.00
2017-12-30T02:57:59.705Z,3.00
2017-12-30T03:00:33.770Z,3.00
2017-12-30T03:03:07.913Z,2.90
2017-12-30T03:05:42.538Z,2.90
2017-12-30T03:08:16.757Z,2.90
2017-12-30T03:10:51.209Z,2.80
2017-12-30T03:13:27.723Z,2.70
2017-12-30T03:16:02.085Z,2.70
2017-12-30T03:18:36.818Z,2.70
2017-12-30T03:21:13.471Z,2.60
2017-12-30T03:23:47.524Z,2.60
2017-12-30T03:26:21.688Z,2.70
2017-12-30T03:28:55.438Z,2.60
2017-12-30T03:31:29.731Z,2.60
2017-12-30T03:34:03.609Z,2.60
2017-12-30T03:36:37.440Z,2.60
2017-12-30T03:39:11.614Z,2.50
2017-12-30T03:41:46.341Z,2.50
2017-12-30T03:44:20.528Z,2.50
2017-12-30T03:46:55.432Z,2.60
2017-12-30T03:49:30.079Z,2.50
2017-12-30T03:52:05.764Z,2.40
2017-12-30T03:54:40.927Z,2.40
2017-12-30T03:57:15.038Z,2.40
2017-12-30T03:59:49.911Z,2.50
2017-12-30T04:02:24.083Z,2.60
2017-12-30T04:04:58.293Z,2.60
2017-12-30T04:07:32.445Z,2.60
2017-12-30T04:10:07.489Z,2.80
2017-12-30T04:12:41.848Z,2.50
2017-12-30T04:15:15.896Z,2.50
2017-12-30T04:17:49.766Z,2.60
2017-12-30T04:20:24.592Z,2.80
2017-12-30T04:22:58.716Z,2.80
2017-12-30T04:25:35.425Z,2.70
2017-12-30T04:28:10.217Z,2.70
2017-12-30T04:30:44.254Z,2.70
2017-12-30T04:33:18.346Z,2.80
2017-12-30T04:35:54.412Z,2.70
2017-12-30T04:38:29.597Z,2.60
2017-12-30T04:41:03.960Z,2.50
2017-12-30T04:43:39.786Z,2.40
2017-12-30T04:46:14.091Z,2.40
2017-12-30T04:48:48.340Z,2.20
2017-12-30T04:51:23.023Z,2.20
2017-12-30T04:53:57.974Z,1.80
2017-12-30T04:56:32.211Z,1.80
2017-12-30T04:59:06.304Z,1.70
2017-12-30T05:01:40.313Z,1.60
2017-12-30T05:04:15.355Z,1.50
2017-12-30T05:06:49.529Z,1.50
2017-12-30T05:09:23.647Z,1.50
2017-12-30T05:11:58.722Z,1.30
2017-12-30T05:14:32.547Z,1.30
2017-12-30T05:17:06.662Z,1.20
2017-12-30T05:19:40.777Z,1.10
2017-12-30T05:22:15.051Z,1.20
2017-12-30T05:24:48.928Z,1.30
2017-12-30T05:27:25.067Z,1.40
2017-12-30T05:29:58.978Z,1.40
2017-12-30T05:32:32.905Z,1.40
2017-12-30T05:35:07.393Z,1.30
2017-12-30T05:37:41.411Z,1.30
2017-12-30T05:40:15.572Z,1.20
2017-12-30T05:42:49.694Z,1.00
2017-12-30T05:45:23.995Z,1.10
2017-12-30T05:47:57.991Z,1.20
2017-12-30T05:50:34.947Z,1.40
2017-12-30T05:53:09.861Z,1.30
2017-12-30T05:55:43.743Z,1.50
2017-12-30T05:58:17.920Z,1.50
2017-12-30T06:00:52.181Z,1.50
2017-12-30T06:03:26.265Z,1.50
2017-12-30T06:06:00.340Z,1.50
2017-12-30T06:08:34.273Z,1.50
2017-12-30T06:11:08.691Z,1.50
2017-12-30T06:13:42.574Z,1.40
2017-12-30T06:16:16.773Z,1.40
2017-12-30T06:18:51.505Z,1.40
2017-12-30T06:21:25.484Z,1.40
2017-12-30T06:23:59.700Z,1.40
2017-12-30T06:26:34.556Z,1.50
2017-12-30T06:29:09.199Z,1.40
2017-12-30T06:31:46.361Z,1.40
2017-12-30T06:34:20.723Z,1.40
2017-12-30T06:36:55.221Z,1.20
2017-12-30T06:39:30.612Z,1.20
2017-12-30T06:42:05.345Z,1.30
2017-12-30T06:44:39.369Z,1.20
2017-12-30T06:47:13.409Z,1.10
2017-12-30T06:49:49.272Z,1.10
2017-12-30T06:52:23.883Z,1.20
2017-12-30T06:54:58.804Z,1.20
2017-12-30T06:57:32.736Z,1.20
2017-12-30T07:00:07.290Z,1.20
2017-12-30T07:02:41.198Z,1.30
2017-12-30T07:05:15.546Z,1.30
2017-12-30T07:07:50.562Z,1.40
2017-12-30T07:10:25.367Z,1.30
2017-12-30T07:13:00.226Z,1.40
2017-12-30T07:15:34.376Z,1.40
2017-12-30T07:18:09.149Z,1.40
2017-12-30T07:20:43.289Z,1.40
2017-12-30T07:23:18.630Z,1.30
2017-12-30T07:25:53.183Z,1.40
2017-12-30T07:28:27.953Z,1.40
2017-12-30T07:31:02.078Z,1.40
2017-12-30T07:33:36.351Z,1.50
2017-12-30T07:36:10.572Z,1.60
2017-12-30T07:38:44.427Z,1.60
2017-12-30T07:41:18.333Z,1.70
2017-12-30T07:43:53.158Z,1.90
2017-12-30T07:46:28.003Z,1.90
2017-12-30T07:49:02.844Z,2.00
2017-12-30T07:51:36.777Z,1.90
2017-12-30T07:54:10.479Z,2.10
2017-12-30T07:56:44.868Z,2.30
2017-12-30T07:59:19.041Z,2.20
2017-12-30T08:01:54.074Z,2.20
2017-12-30T08:04:28.444Z,2.10
2017-12-30T08:07:02.408Z,2.20
2017-12-30T08:09:36.280Z,2.00
2017-12-30T08:12:12.410Z,2.20
2017-12-30T08:14:46.358Z,2.20
2017-12-30T08:17:20.573Z,2.40
2017-12-30T08:19:55.420Z,2.70
2017-12-30T08:22:30.238Z,2.70
2017-12-30T08:25:05.311Z,2.70
2017-12-30T08:27:39.390Z,2.70
2017-12-30T08:30:14.573Z,2.70
2017-12-30T08:32:50.036Z,2.60
2017-12-30T08:35:23.976Z,2.60
2017-12-30T08:37:58.773Z,2.60
2017-12-30T08:40:32.737Z,2.80
2017-12-30T08:43:08.689Z,2.80
2017-12-30T08:45:42.789Z,2.90
2017-12-30T08:48:16.937Z,3.00
2017-12-30T08:50:51.096Z,3.00
2017-12-30T08:53:25.896Z,3.20
2017-12-30T08:56:00.066Z,3.20
2017-12-30T08:58:35.111Z,3.30
2017-12-30T09:01:08.766Z,3.20
2017-12-30T09:03:43.067Z,3.30
2017-12-30T09:06:17.058Z,3.40
2017-12-30T09:08:50.952Z,3.50
2017-12-30T09:11:25.580Z,3.60
2017-12-30T09:14:00.835Z,3.70
2017-12-30T09:16:35.014Z,3.70
2017-12-30T09:19:10.041Z,3.70
2017-12-30T09:21:44.936Z,3.70
2017-12-30T09:24:19.545Z,3.60
2017-12-30T09:26:53.598Z,3.60
2017-12-30T09:29:27.639Z,3.50
2017-12-30T09:32:02.098Z,3.60
2017-12-30T09:34:37.002Z,3.60
2017-12-30T09:37:11.422Z,3.60
2017-12-30T09:39:45.999Z,3.50
2017-12-30T09:42:19.947Z,3.40
2017-12-30T09:44:54.478Z,3.30
2017-12-30T09:47:28.322Z,3.30
2017-12-30T09:50:02.948Z,3.40
2017-12-30T09:52:36.612Z,3.40
2017-12-30T09:55:10.430Z,3.30
2017-12-30T09:57:45.106Z,3.30
2017-12-30T10:00:18.916Z,3.20
2017-12-30T10:02:53.664Z,3.20
2017-12-30T10:05:27.948Z,3.20
2017-12-30T10:08:01.956Z,3.10
2017-12-30T10:10:37.372Z,3.00
2017-12-30T10:13:11.408Z,3.00
2017-12-30T10:15:46.064Z,2.90
2017-12-30T10:18:21.675Z,2.70
2017-12-30T10:20:55.560Z,2.70
2017-12-30T10:23:29.777Z,2.60
2017-12-30T10:26:03.966Z,2.60
2017-12-30T10:28:38.824Z,2.50
2017-12-30T10:31:12.602Z,2.60
2017-12-30T10:33:46.571Z,2.60
2017-12-30T10:36:20.500Z,2.50
2017-12-30T10:38:54.663Z,2.50
2017-12-30T10:41:29.774Z,2.40
2017-12-30T10:44:03.625Z,2.40
2017-12-30T10:46:37.425Z,2.30
2017-12-30T10:49:11.175Z,2.30
2017-12-30T10:51:44.821Z,2.30
2017-12-30T10:54:19.586Z,2.30
2017-12-30T10:56:53.380Z,2.30
2017-12-30T10:59:27.022Z,2.30
2017-12-30T11:02:01.070Z,2.30
2017-12-30T11:04:34.852Z,2.40
2017-12-30T11:07:09.643Z,2.50
2017-12-30T11:09:43.761Z,2.50
2017-12-30T11:12:17.867Z,2.70
2017-12-30T11:14:52.559Z,2.70
2017-12-30T11:17:27.035Z,2.70
2017-12-30T11:20:03.000Z,2.80
2017-12-30T11:22:37.003Z,2.80
2017-12-30T11:25:12.056Z,2.80
2017-12-30T11:27:45.889Z,2.90
2017-12-30T11:30:19.536Z,3.00
2017-12-30T11:32:53.303Z,2.90
2017-12-30T11:35:27.269Z,2.90
2017-12-30T11:38:01.866Z,2.80
2017-12-30T11:40:36.259Z,2.80
2017-12-30T11:43:10.034Z,2.80
2017-12-30T11:45:43.738Z,2.90
2017-12-30T11:48:17.580Z,2.80
2017-12-30T11:50:51.295Z,2.80
2017-12-30T11:53:25.145Z,2.90
2017-12-30T11:55:58.861Z,2.90
2017-12-30T11:58:33.797Z,3.00
2017-12-30T12:01:08.568Z,3.10
2017-12-30T12:03:42.423Z,3.20
2017-12-30T12:06:16.294Z,3.30
2017-12-30T12:08:50.852Z,3.20
2017-12-30T12:11:24.735Z,3.20
2017-12-30T12:13:59.375Z,3.20
2017-12-30T12:16:33.216Z,3.20
2017-12-30T12:19:07.012Z,3.20
2017-12-30T12:21:41.000Z,3.20
2017-12-30T12:24:15.792Z,3.30
2017-12-30T12:26:49.879Z,3.30
2017-12-30T12:29:24.894Z,3.30
2017-12-30T12:31:58.723Z,3.30
2017-12-30T12:34:32.619Z,3.30
2017-12-30T12:37:10.093Z,3.60
2017-12-30T12:39:44.201Z,3.60
2017-12-30T12:42:18.277Z,3.70
2017-12-30T12:44:53.224Z,3.80
2017-12-30T12:47:27.119Z,3.80
2017-12-30T12:50:01.121Z,3.80
2017-12-30T12:52:35.066Z,3.70
2017-12-30T12:55:08.861Z,3.80
2017-12-30T12:57:43.570Z,3.90
2017-12-30T13:00:17.633Z,3.80
2017-12-30T13:02:52.113Z,4.10
2017-12-30T13:05:26.057Z,4.10
2017-12-30T13:07:59.976Z,4.20
2017-12-30T13:10:34.269Z,4.40
2017-12-30T13:13:08.506Z,4.50
2017-12-30T13:15:42.610Z,4.60
2017-12-30T13:18:16.594Z,4.70
2017-12-30T13:20:51.242Z,4.70
2017-12-30T13:23:27.036Z,4.70
2017-12-30T13:26:01.533Z,4.70
2017-12-30T13:28:35.596Z,4.60
2017-12-30T13:31:09.618Z,4.70
2017-12-30T13:33:50.156Z,4.70
2017-12-30T13:36:24.731Z,4.70
2017-12-30T13:38:59.679Z,4.70
2017-12-30T13:41:33.495Z,4.70
2017-12-30T13:44:07.635Z,4.80
2017-12-30T13:46:41.533Z,4.70
2017-12-30T13:49:15.258Z,4.80
2017-12-30T13:51:49.175Z,4.80
2017-12-30T13:54:23.149Z,4.80
2017-12-30T13:56:57.174Z,4.70
2017-12-30T13:59:31.422Z,4.60
2017-12-30T14:02:05.319Z,4.80
2017-12-30T14:04:39.767Z,5.20
2017-12-30T14:07:13.792Z,5.20
2017-12-30T14:09:47.573Z,5.50
2017-12-30T14:12:21.720Z,6.30
2017-12-30T14:14:55.612Z,6.70
2017-12-30T14:17:29.827Z,6.60
2017-12-30T14:20:04.679Z,6.70
2017-12-30T14:22:38.477Z,6.70
2017-12-30T14:25:13.115Z,6.90
2017-12-30T14:27:47.021Z,6.90
2017-12-30T14:30:21.038Z,7.10
2017-12-30T14:32:55.467Z,7.10
2017-12-30T14:35:30.330Z,7.10
2017-12-30T14:38:04.353Z,7.00
2017-12-30T14:40:40.939Z,7.00
2017-12-30T14:43:14.851Z,6.90
2017-12-30T14:45:49.248Z,6.70
2017-12-30T14:48:23.135Z,7.00
2017-12-30T14:50:58.509Z,7.00
2017-12-30T14:53:33.154Z,7.00
2017-12-30T14:56:07.551Z,7.00
2017-12-30T14:58:41.931Z,6.90
2017-12-30T15:01:16.818Z,6.90
2017-12-30T15:03:51.687Z,7.00
2017-12-30T15:06:25.876Z,6.90
2017-12-30T15:08:59.886Z,7.10
2017-12-30T15:11:36.007Z,7.30
2017-12-30T15:14:09.899Z,7.30
2017-12-30T15:16:45.387Z,7.30
2017-12-30T15:19:20.211Z,7.20
2017-12-30T15:21:54.875Z,7.20
2017-12-30T15:24:31.200Z,7.20
2017-12-30T15:27:05.095Z,7.10
2017-12-30T15:29:40.375Z,7.20
2017-12-30T15:32:15.651Z,7.20
2017-12-30T15:34:50.084Z,7.00
2017-12-30T15:37:23.918Z,6.70
2017-12-30T15:39:59.626Z,6.50
2017-12-30T15:42:34.299Z,6.30
2017-12-30T15:45:09.326Z,6.30
2017-12-30T15:47:43.361Z,6.40
2017-12-30T15:50:17.983Z,6.30
2017-12-30T15:52:54.237Z,6.30
2017-12-30T15:55:28.655Z,6.30
2017-12-30T15:58:02.493Z,6.30
2017-12-30T16:00:38.118Z,6.30
2017-12-30T16:03:12.012Z,6.20
2017-12-30T16:05:47.185Z,6.20
2017-12-30T16:08:21.139Z,6.30
2017-12-30T16:10:55.015Z,6.40
2017-12-30T16:13:28.751Z,6.30
2017-12-30T16:16:02.735Z,6.40
2017-12-30T16:18:37.720Z,6.30
2017-12-30T16:21:11.971Z,6.30
2017-12-30T16:23:45.914Z,6.20
2017-12-30T16:26:20.605Z,6.20
2017-12-30T16:28:55.177Z,6.30
2017-12-30T16:31:30.463Z,6.30
2017-12-30T16:34:08.668Z,6.30
2017-12-30T16:36:42.786Z,6.40
2017-12-30T16:39:17.085Z,6.50
2017-12-30T16:41:52.758Z,6.40
2017-12-30T16:44:28.108Z,6.40
2017-12-30T16:47:03.122Z,6.50
2017-12-30T16:49:36.716Z,6.40
2017-12-30T16:52:10.640Z,6.60
2017-12-30T16:54:44.759Z,6.60
2017-12-30T16:57:19.487Z,6.70
2017-12-30T16:59:55.537Z,7.00
2017-12-30T17:02:30.810Z,7.70
2017-12-30T17:05:05.372Z,8.20
2017-12-30T17:07:39.045Z,8.20
2017-12-30T17:10:13.245Z,8.50
2017-12-30T17:12:47.374Z,8.50
2017-12-30T17:15:21.461Z,8.60
2017-12-30T17:17:56.314Z,8.80
2017-12-30T17:20:30.366Z,8.80
2017-12-30T17:23:04.178Z,8.90
2017-12-30T17:25:38.478Z,9.30
2017-12-30T17:28:12.426Z,9.20
2017-12-30T17:30:46.492Z,9.50
2017-12-30T17:33:20.400Z,9.60
2017-12-30T17:35:55.083Z,9.60
2017-12-30T17:38:28.968Z,9.60
2017-12-30T17:41:02.974Z,9.60
2017-12-30T17:43:37.072Z,9.50
2017-12-30T17:46:11.858Z,9.50
2017-12-30T17:48:45.914Z,9.40
2017-12-30T17:51:20.035Z,9.40
2017-12-30T17:53:55.011Z,9.60
2017-12-30T17:56:28.790Z,9.60
2017-12-30T17:59:04.369Z,9.60
2017-12-30T18:01:38.608Z,9.50
2017-12-30T18:04:13.390Z,9.70
2017-12-30T18:06:48.449Z,9.60
2017-12-30T18:09:22.810Z,9.70
2017-12-30T18:11:57.974Z,9.80
2017-12-30T18:14:32.753Z,9.70
2017-12-30T18:17:06.761Z,9.60
2017-12-30T18:19:41.848Z,9.70
2017-12-30T18:22:15.664Z,9.70
2017-12-30T18:24:49.644Z,9.70
2017-12-30T18:27:23.621Z,9.70
2017-12-30T18:29:57.821Z,9.90
2017-12-30T18:32:31.832Z,9.80
2017-12-30T18:35:06.610Z,9.70
2017-12-30T18:37:43.193Z,9.70
2017-12-30T18:40:17.228Z,9.70
2017-12-30T18:42:51.116Z,9.70
2017-12-30T18:45:26.273Z,9.60
2017-12-30T18:48:00.258Z,9.60
2017-12-30T18:50:34.886Z,9.60
2017-12-30T18:53:08.956Z,9.60
2017-12-30T18:55:43.330Z,9.70
2017-12-30T18:58:17.414Z,9.70
2017-12-30T19:00:53.410Z,9.70
2017-12-30T19:03:27.232Z,9.80
2017-12-30T19:06:01.185Z,9.70
2017-12-30T19:08:35.101Z,9.80
2017-12-30T19:11:09.962Z,9.60
2017-12-30T19:13:44.448Z,9.60
2017-12-30T19:16:19.140Z,9.50
2017-12-30T19:18:54.246Z,9.40
2017-12-30T19:21:28.357Z,9.40
2017-12-30T19:24:02.289Z,9.30
2017-12-30T19:26:36.655Z,9.10
2017-12-30T19:29:10.567Z,9.00
2017-12-30T19:31:45.099Z,9.10
2017-12-30T19:34:19.711Z,9.10
2017-12-30T19:36:53.536Z,9.10
2017-12-30T19:39:28.913Z,9.10
2017-12-30T19:42:02.725Z,9.10
2017-12-30T19:44:36.522Z,9.40
2017-12-30T19:47:10.917Z,9.40
2017-12-30T19:49:45.451Z,9.70
2017-12-30T19:52:19.189Z,9.70
2017-12-30T19:54:53.036Z,9.70
2017-12-30T19:57:27.426Z,9.80
2017-12-30T20:00:02.097Z,9.60
2017-12-30T20:02:35.820Z,9.40
2017-12-30T20:05:09.695Z,9.30
2017-12-30T20:07:47.025Z,9.20
2017-12-30T20:10:20.815Z,9.10
2017-12-30T20:12:54.677Z,9.00
2017-12-30T20:15:29.296Z,9.00
2017-12-30T20:18:03.093Z,9.00
2017-12-30T20:20:36.875Z,8.90
2017-12-30T20:23:11.568Z,8.90
2017-12-30T20:25:45.190Z,8.90
2017-12-30T20:28:20.444Z,8.90
2017-12-30T20:30:54.893Z,9.00
2017-12-30T20:33:29.636Z,9.00
2017-12-30T20:36:03.358Z,8.90
2017-12-30T20:38:37.150Z,8.90
2017-12-30T20:41:10.903Z,9.00
2017-12-30T20:43:44.731Z,8.90
2017-12-30T20:46:18.515Z,8.80
2017-12-30T20:48:53.178Z,8.60
2017-12-30T20:51:27.064Z,8.60
2017-12-30T20:54:02.864Z,8.60
2017-12-30T20:56:37.480Z,8.40
2017-12-30T20:59:11.129Z,8.40
2017-12-30T21:01:45.605Z,8.40
2017-12-30T21:04:19.311Z,8.40
2017-12-30T21:06:53.884Z,8.30
2017-12-30T21:09:28.589Z,8.30
2017-12-30T21:12:02.473Z,8.30
2017-12-30T21:14:37.150Z,8.30
2017-12-30T21:17:11.094Z,8.30
2017-12-30T21:19:45.432Z,8.20
2017-12-30T21:22:19.325Z,8.20
2017-12-30T21:24:53.061Z,8.10
2017-12-30T21:27:26.872Z,8.00
2017-12-30T21:30:00.569Z,7.90
2017-12-30T21:32:34.444Z,7.80
2017-12-30T21:35:09.096Z,7.90
2017-12-30T21:37:42.829Z,7.80
2017-12-30T21:40:17.603Z,7.90
2017-12-30T21:42:51.302Z,7.90
2017-12-30T21:45:25.040Z,8.10
2017-12-30T21:47:59.629Z,8.10
2017-12-30T21:50:33.360Z,8.10
2017-12-30T21:53:08.798Z,8.00
2017-12-30T21:55:42.825Z,8.00
2017-12-30T21:58:16.496Z,8.10
2017-12-30T22:00:50.396Z,8.20
2017-12-30T22:03:24.228Z,8.20
2017-12-30T22:05:58.007Z,8.20
2017-12-30T22:08:33.238Z,8.30
2017-12-30T22:11:07.107Z,8.30
2017-12-30T22:13:40.859Z,8.30
2017-12-30T22:16:14.708Z,8.30
2017-12-30T22:18:49.247Z,8.30
2017-12-30T22:21:23.082Z,8.40
2017-12-30T22:23:57.558Z,8.40
2017-12-30T22:26:32.348Z,8.40
2017-12-30T22:29:06.234Z,8.40
2017-12-30T22:31:40.002Z,8.30
2017-12-30T22:34:14.495Z,8.60
2017-12-30T22:36:48.299Z,8.60
2017-12-30T22:39:22.038Z,8.50
2017-12-30T22:41:55.933Z,8.50
2017-12-30T22:44:30.517Z,8.50
2017-12-30T22:47:05.209Z,8.50
2017-12-30T22:49:40.011Z,8.40
2017-12-30T22:52:16.141Z,8.50
2017-12-30T22:54:50.685Z,8.40
2017-12-30T22:57:25.303Z,8.40
2017-12-30T22:59:59.724Z,8.30
2017-12-30T23:02:34.265Z,8.20
2017-12-30T23:05:08.051Z,8.20
2017-12-30T23:07:41.946Z,8.20
2017-12-30T23:10:16.389Z,8.30
2017-12-30T23:12:51.163Z,8.30
2017-12-30T23:15:25.036Z,8.60
2017-12-30T23:17:58.860Z,8.70
2017-12-30T23:20:32.555Z,9.00
2017-12-30T23:23:07.801Z,9.10
2017-12-30T23:25:41.821Z,9.10
2017-12-30T23:28:15.668Z,9.20
2017-12-30T23:30:49.447Z,9.40
2017-12-30T23:33:23.213Z,9.40
2017-12-30T23:35:57.683Z,9.60
2017-12-30T23:38:31.413Z,9.60
2017-12-30T23:41:05.860Z,9.90
2017-12-30T23:43:40.242Z,9.80
2017-12-30T23:46:14.030Z,9.80
2017-12-30T23:48:48.150Z,10.00
2017-12-30T23:51:22.052Z,10.00
2017-12-30T23:53:56.068Z,10.10
2017-12-30T23:56:29.877Z,10.00
2017-12-30T23:59:03.741Z,10.20
